Port Mansfield, Texas
Current Conditions -  °F | °C
As of 3:52 PM on Friday 19 Dec 2014 (Local Time) from KHRL Reporting Station
Overcast Overcast  
Wind Chill: 61°   Ceiling: 900
Heat Index: 61°   Visibility: 10mi
Dew Point: 58°   Wind: 13mph
Humidity: 90%   Direction: 340°NNW
Pressure: 29.99"   Gusts: NA
Location:  26.56°N, 97.43°W
Report Text: KHRL 192152Z 34011KT 10SM OVC009 16/14 A2999 RMK AO2 SLP154 T01610144
Loading
Personal Weather Stations






























Interactive Weather Map New forecast layout! Learn more

10-Day Weather Forecast

Advertisements
Track Severe Weather on mobile